sensor_id;sensor_type;location;lat;lon;timestamp;pressure;altitude;pressure_sealevel;temperature;humidity
72423;BME280;71399;54.146;38.734;2024-03-17T00:00:21;99278.63;;;-4.80;100.00
72423;BME280;71399;54.146;38.734;2024-03-17T00:02:48;99268.22;;;-4.78;100.00
72423;BME280;71399;54.146;38.734;2024-03-17T00:05:15;99248.19;;;-4.75;100.00
72423;BME280;71399;54.146;38.734;2024-03-17T00:07:41;99241.25;;;-4.55;100.00
72423;BME280;71399;54.146;38.734;2024-03-17T00:10:08;99225.41;;;-4.40;100.00
72423;BME280;71399;54.146;38.734;2024-03-17T00:12:36;99196.13;;;-4.39;100.00
72423;BME280;71399;54.146;38.734;2024-03-17T00:15:04;99210.34;;;-4.25;100.00
72423;BME280;71399;54.146;38.734;2024-03-17T00:17:32;99219.84;;;-4.36;100.00
72423;BME280;71399;54.146;38.734;2024-03-17T00:20:02;99198.25;;;-4.25;100.00
72423;BME280;71399;54.146;38.734;2024-03-17T00:22:37;99191.91;;;-4.21;100.00
72423;BME280;71399;54.146;38.734;2024-03-17T00:25:07;99200.19;;;-4.27;100.00
72423;BME280;71399;54.146;38.734;2024-03-17T00:27:34;99238.41;;;-4.42;100.00
72423;BME280;71399;54.146;38.734;2024-03-17T00:30:06;99251.53;;;-4.45;100.00
72423;BME280;71399;54.146;38.734;2024-03-17T00:32:39;99201.44;;;-4.41;100.00
72423;BME280;71399;54.146;38.734;2024-03-17T00:35:07;99147.13;;;-4.38;100.00
72423;BME280;71399;54.146;38.734;2024-03-17T00:37:35;99141.78;;;-4.26;100.00
72423;BME280;71399;54.146;38.734;2024-03-17T00:40:03;99129.50;;;-4.33;100.00
72423;BME280;71399;54.146;38.734;2024-03-17T00:42:30;99147.59;;;-4.24;100.00
72423;BME280;71399;54.146;38.734;2024-03-17T00:44:57;99137.84;;;-4.21;100.00
72423;BME280;71399;54.146;38.734;2024-03-17T00:47:26;99145.97;;;-4.16;100.00
72423;BME280;71399;54.146;38.734;2024-03-17T00:49:52;99133.00;;;-4.24;100.00
72423;BME280;71399;54.146;38.734;2024-03-17T00:52:18;99150.72;;;-4.21;100.00
72423;BME280;71399;54.146;38.734;2024-03-17T00:54:47;99159.81;;;-4.26;100.00
72423;BME280;71399;54.146;38.734;2024-03-17T00:57:14;99168.81;;;-4.40;100.00
72423;BME280;71399;54.146;38.734;2024-03-17T00:59:44;99210.09;;;-4.42;100.00
72423;BME280;71399;54.146;38.734;2024-03-17T01:02:14;99200.88;;;-4.44;100.00
72423;BME280;71399;54.146;38.734;2024-03-17T01:04:43;99204.03;;;-4.41;100.00
72423;BME280;71399;54.146;38.734;2024-03-17T01:07:10;99192.50;;;-4.47;100.00
72423;BME280;71399;54.146;38.734;2024-03-17T01:09:36;99214.97;;;-4.39;100.00
72423;BME280;71399;54.146;38.734;2024-03-17T01:12:03;99239.72;;;-4.38;100.00
72423;BME280;71399;54.146;38.734;2024-03-17T01:14:30;99233.38;;;-4.34;100.00
72423;BME280;71399;54.146;38.734;2024-03-17T01:16:57;99210.88;;;-4.32;100.00
72423;BME280;71399;54.146;38.734;2024-03-17T01:19:23;99202.09;;;-4.29;100.00
72423;BME280;71399;54.146;38.734;2024-03-17T01:21:51;99196.81;;;-4.28;100.00
72423;BME280;71399;54.146;38.734;2024-03-17T01:24:17;99184.63;;;-4.35;100.00
72423;BME280;71399;54.146;38.734;2024-03-17T01:26:44;99217.38;;;-4.28;100.00
72423;BME280;71399;54.146;38.734;2024-03-17T01:29:11;99234.28;;;-4.25;100.00
72423;BME280;71399;54.146;38.734;2024-03-17T01:31:37;99247.56;;;-4.30;100.00
72423;BME280;71399;54.146;38.734;2024-03-17T01:34:03;99221.84;;;-4.30;100.00
72423;BME280;71399;54.146;38.734;2024-03-17T01:36:30;99211.69;;;-4.31;100.00
72423;BME280;71399;54.146;38.734;2024-03-17T01:38:56;99204.28;;;-4.34;100.00
72423;BME280;71399;54.146;38.734;2024-03-17T01:41:22;99199.22;;;-4.26;100.00
72423;BME280;71399;54.146;38.734;2024-03-17T01:43:49;99183.75;;;-4.26;100.00
72423;BME280;71399;54.146;38.734;2024-03-17T01:46:16;99158.88;;;-4.25;100.00
72423;BME280;71399;54.146;38.734;2024-03-17T01:48:44;99152.50;;;-4.31;100.00
72423;BME280;71399;54.146;38.734;2024-03-17T01:51:13;99151.56;;;-4.30;100.00
72423;BME280;71399;54.146;38.734;2024-03-17T01:53:42;99165.09;;;-4.28;100.00
72423;BME280;71399;54.146;38.734;2024-03-17T01:56:10;99142.22;;;-4.31;100.00
72423;BME280;71399;54.146;38.734;2024-03-17T01:58:38;99116.19;;;-4.28;100.00
72423;BME280;71399;54.146;38.734;2024-03-17T02:01:04;99130.81;;;-4.19;100.00
72423;BME280;71399;54.146;38.734;2024-03-17T02:03:30;99118.50;;;-4.25;100.00
72423;BME280;71399;54.146;38.734;2024-03-17T02:05:58;99129.69;;;-4.16;100.00
72423;BME280;71399;54.146;38.734;2024-03-17T02:08:25;99127.84;;;-4.24;100.00
72423;BME280;71399;54.146;38.734;2024-03-17T02:10:55;99147.56;;;-4.15;100.00
72423;BME280;71399;54.146;38.734;2024-03-17T02:13:22;99141.41;;;-4.32;100.00
72423;BME280;71399;54.146;38.734;2024-03-17T02:15:49;99155.91;;;-4.31;100.00
72423;BME280;71399;54.146;38.734;2024-03-17T02:18:16;99170.16;;;-4.46;100.00
72423;BME280;71399;54.146;38.734;2024-03-17T02:20:42;99199.69;;;-4.50;100.00
72423;BME280;71399;54.146;38.734;2024-03-17T02:23:28;99187.41;;;-4.66;100.00
72423;BME280;71399;54.146;38.734;2024-03-17T02:25:55;99204.06;;;-4.70;100.00
72423;BME280;71399;54.146;38.734;2024-03-17T02:28:21;99217.72;;;-4.79;100.00
72423;BME280;71399;54.146;38.734;2024-03-17T02:30:47;99211.00;;;-4.90;100.00
72423;BME280;71399;54.146;38.734;2024-03-17T02:33:14;99198.00;;;-4.98;100.00
72423;BME280;71399;54.146;38.734;2024-03-17T02:35:40;99172.97;;;-4.96;100.00
72423;BME280;71399;54.146;38.734;2024-03-17T02:38:06;99124.53;;;-4.91;100.00
72423;BME280;71399;54.146;38.734;2024-03-17T02:40:41;99076.19;;;-4.78;100.00
72423;BME280;71399;54.146;38.734;2024-03-17T02:43:07;99043.38;;;-4.66;100.00
72423;BME280;71399;54.146;38.734;2024-03-17T02:45:33;99001.31;;;-4.65;100.00
72423;BME280;71399;54.146;38.734;2024-03-17T02:47:59;99011.41;;;-4.54;100.00
72423;BME280;71399;54.146;38.734;2024-03-17T02:50:25;98977.16;;;-4.54;100.00
72423;BME280;71399;54.146;38.734;2024-03-17T02:52:52;98977.63;;;-4.41;100.00
72423;BME280;71399;54.146;38.734;2024-03-17T02:55:18;98976.50;;;-4.38;100.00
72423;BME280;71399;54.146;38.734;2024-03-17T02:57:44;98980.44;;;-4.34;100.00
72423;BME280;71399;54.146;38.734;2024-03-17T03:00:11;98988.81;;;-4.32;100.00
72423;BME280;71399;54.146;38.734;2024-03-17T03:02:39;98984.75;;;-4.35;100.00
72423;BME280;71399;54.146;38.734;2024-03-17T03:05:05;98985.16;;;-4.39;100.00
72423;BME280;71399;54.146;38.734;2024-03-17T03:07:32;98998.34;;;-4.42;100.00
72423;BME280;71399;54.146;38.734;2024-03-17T03:09:59;99026.19;;;-4.38;100.00
72423;BME280;71399;54.146;38.734;2024-03-17T03:12:25;99035.53;;;-4.37;100.00
72423;BME280;71399;54.146;38.734;2024-03-17T03:14:51;99032.97;;;-4.37;100.00
72423;BME280;71399;54.146;38.734;2024-03-17T03:17:17;99033.25;;;-4.40;100.00
72423;BME280;71399;54.146;38.734;2024-03-17T03:19:44;99023.53;;;-4.46;100.00
72423;BME280;71399;54.146;38.734;2024-03-17T03:22:10;99011.44;;;-4.36;100.00
72423;BME280;71399;54.146;38.734;2024-03-17T03:24:36;98995.56;;;-4.31;100.00
72423;BME280;71399;54.146;38.734;2024-03-17T03:27:02;98971.22;;;-4.37;100.00
72423;BME280;71399;54.146;38.734;2024-03-17T03:29:30;98987.69;;;-4.30;100.00
72423;BME280;71399;54.146;38.734;2024-03-17T03:31:56;98978.00;;;-4.36;100.00
72423;BME280;71399;54.146;38.734;2024-03-17T03:34:24;98991.91;;;-4.29;100.00
72423;BME280;71399;54.146;38.734;2024-03-17T03:36:51;98986.31;;;-4.24;100.00
72423;BME280;71399;54.146;38.734;2024-03-17T03:39:18;98981.16;;;-4.24;100.00
72423;BME280;71399;54.146;38.734;2024-03-17T03:41:45;98968.06;;;-4.31;100.00
72423;BME280;71399;54.146;38.734;2024-03-17T03:44:12;98978.44;;;-4.22;100.00
72423;BME280;71399;54.146;38.734;2024-03-17T03:46:39;98979.91;;;-4.20;100.00
72423;BME280;71399;54.146;38.734;2024-03-17T03:49:06;98981.03;;;-4.22;100.00
72423;BME280;71399;54.146;38.734;2024-03-17T03:51:32;98971.53;;;-4.22;100.00
72423;BME280;71399;54.146;38.734;2024-03-17T03:53:58;98977.47;;;-4.21;100.00
72423;BME280;71399;54.146;38.734;2024-03-17T03:56:24;99001.75;;;-4.24;100.00
72423;BME280;71399;54.146;38.734;2024-03-17T03:58:51;98998.94;;;-4.31;100.00
72423;BME280;71399;54.146;38.734;2024-03-17T04:01:20;99029.91;;;-4.22;100.00
72423;BME280;71399;54.146;38.734;2024-03-17T04:03:47;99037.88;;;-4.16;100.00
72423;BME280;71399;54.146;38.734;2024-03-17T04:06:16;99032.72;;;-4.16;100.00
72423;BME280;71399;54.146;38.734;2024-03-17T04:08:43;99052.41;;;-4.06;100.00
72423;BME280;71399;54.146;38.734;2024-03-17T04:11:09;99041.75;;;-4.12;100.00
72423;BME280;71399;54.146;38.734;2024-03-17T04:13:37;99046.63;;;-4.08;100.00
72423;BME280;71399;54.146;38.734;2024-03-17T04:16:04;99034.53;;;-4.08;100.00
72423;BME280;71399;54.146;38.734;2024-03-17T04:18:32;99071.31;;;-3.98;100.00
72423;BME280;71399;54.146;38.734;2024-03-17T04:21:02;99081.41;;;-4.04;100.00
72423;BME280;71399;54.146;38.734;2024-03-17T04:23:35;99115.09;;;-3.98;100.00
72423;BME280;71399;54.146;38.734;2024-03-17T04:26:02;99121.31;;;-3.91;100.00
72423;BME280;71399;54.146;38.734;2024-03-17T04:28:29;99114.22;;;-3.88;100.00
72423;BME280;71399;54.146;38.734;2024-03-17T04:31:05;99115.91;;;-3.79;100.00
72423;BME280;71399;54.146;38.734;2024-03-17T04:33:33;99108.06;;;-3.78;100.00
72423;BME280;71399;54.146;38.734;2024-03-17T04:36:00;99123.06;;;-3.73;100.00
72423;BME280;71399;54.146;38.734;2024-03-17T04:38:28;99153.34;;;-3.57;100.00
72423;BME280;71399;54.146;38.734;2024-03-17T04:40:54;99148.06;;;-3.56;100.00
72423;BME280;71399;54.146;38.734;2024-03-17T04:43:31;99171.16;;;-3.46;100.00
72423;BME280;71399;54.146;38.734;2024-03-17T04:46:03;99197.00;;;-3.38;100.00
72423;BME280;71399;54.146;38.734;2024-03-17T04:48:31;99211.09;;;-3.32;100.00
72423;BME280;71399;54.146;38.734;2024-03-17T04:50:59;99219.84;;;-3.25;100.00
72423;BME280;71399;54.146;38.734;2024-03-17T04:53:27;99213.88;;;-3.25;100.00
72423;BME280;71399;54.146;38.734;2024-03-17T04:56:04;99234.44;;;-3.15;100.00
72423;BME280;71399;54.146;38.734;2024-03-17T04:58:32;99234.13;;;-3.12;100.00
72423;BME280;71399;54.146;38.734;2024-03-17T05:01:08;99259.97;;;-3.04;100.00
72423;BME280;71399;54.146;38.734;2024-03-17T05:03:35;99259.56;;;-3.00;100.00
72423;BME280;71399;54.146;38.734;2024-03-17T05:06:02;99266.28;;;-2.89;100.00
72423;BME280;71399;54.146;38.734;2024-03-17T05:08:29;99277.63;;;-2.82;100.00
72423;BME280;71399;54.146;38.734;2024-03-17T05:11:00;99274.88;;;-2.80;100.00
72423;BME280;71399;54.146;38.734;2024-03-17T05:13:27;99296.09;;;-2.68;100.00
72423;BME280;71399;54.146;38.734;2024-03-17T05:15:54;99303.91;;;-2.60;100.00
72423;BME280;71399;54.146;38.734;2024-03-17T05:18:20;99305.28;;;-2.48;100.00
72423;BME280;71399;54.146;38.734;2024-03-17T05:21:03;99318.56;;;-2.43;100.00
72423;BME280;71399;54.146;38.734;2024-03-17T05:23:31;99328.22;;;-2.45;100.00
72423;BME280;71399;54.146;38.734;2024-03-17T05:25:58;99328.53;;;-2.48;100.00
72423;BME280;71399;54.146;38.734;2024-03-17T05:28:26;99320.41;;;-2.53;100.00
72423;BME280;71399;54.146;38.734;2024-03-17T05:30:53;99332.38;;;-2.52;100.00
72423;BME280;71399;54.146;38.734;2024-03-17T05:33:21;99330.16;;;-2.47;100.00
72423;BME280;71399;54.146;38.734;2024-03-17T05:35:50;99335.75;;;-2.33;100.00
72423;BME280;71399;54.146;38.734;2024-03-17T05:38:20;99320.91;;;-2.31;100.00
72423;BME280;71399;54.146;38.734;2024-03-17T05:40:56;99345.13;;;-2.06;100.00
72423;BME280;71399;54.146;38.734;2024-03-17T05:43:23;99341.19;;;-1.92;100.00
72423;BME280;71399;54.146;38.734;2024-03-17T05:45:51;99327.97;;;-1.89;100.00
72423;BME280;71399;54.146;38.734;2024-03-17T05:48:18;99331.09;;;-1.77;100.00
72423;BME280;71399;54.146;38.734;2024-03-17T05:50:45;99340.88;;;-1.63;100.00
72423;BME280;71399;54.146;38.734;2024-03-17T05:53:11;99349.94;;;-1.59;100.00
72423;BME280;71399;54.146;38.734;2024-03-17T05:55:38;99351.59;;;-1.50;100.00
72423;BME280;71399;54.146;38.734;2024-03-17T05:58:06;99356.06;;;-1.34;100.00
72423;BME280;71399;54.146;38.734;2024-03-17T06:00:38;99357.69;;;-1.24;100.00
72423;BME280;71399;54.146;38.734;2024-03-17T06:03:06;99353.34;;;-1.16;100.00
72423;BME280;71399;54.146;38.734;2024-03-17T06:05:36;99348.03;;;-1.14;100.00
72423;BME280;71399;54.146;38.734;2024-03-17T06:08:05;99367.66;;;-1.03;100.00
72423;BME280;71399;54.146;38.734;2024-03-17T06:10:32;99370.72;;;-1.00;100.00
72423;BME280;71399;54.146;38.734;2024-03-17T06:12:59;99356.50;;;-0.96;100.00
72423;BME280;71399;54.146;38.734;2024-03-17T06:15:26;99366.72;;;-0.78;100.00
72423;BME280;71399;54.146;38.734;2024-03-17T06:17:53;99365.13;;;-0.70;100.00
72423;BME280;71399;54.146;38.734;2024-03-17T06:20:21;99376.78;;;-0.66;100.00
72423;BME280;71399;54.146;38.734;2024-03-17T06:22:49;99375.31;;;-0.69;100.00
72423;BME280;71399;54.146;38.734;2024-03-17T06:25:16;99372.59;;;-0.51;100.00
72423;BME280;71399;54.146;38.734;2024-03-17T06:27:43;99359.50;;;-0.49;100.00
72423;BME280;71399;54.146;38.734;2024-03-17T06:30:13;99359.66;;;-0.34;100.00
72423;BME280;71399;54.146;38.734;2024-03-17T06:32:43;99373.59;;;-0.19;100.00
72423;BME280;71399;54.146;38.734;2024-03-17T06:35:14;99371.31;;;-0.14;100.00
72423;BME280;71399;54.146;38.734;2024-03-17T06:37:44;99383.94;;;-0.03;100.00
72423;BME280;71399;54.146;38.734;2024-03-17T06:40:14;99383.63;;;0.01;100.00
72423;BME280;71399;54.146;38.734;2024-03-17T06:42:41;99393.84;;;0.02;100.00
72423;BME280;71399;54.146;38.734;2024-03-17T06:45:08;99393.81;;;0.18;100.00
72423;BME280;71399;54.146;38.734;2024-03-17T06:47:37;99380.66;;;0.36;100.00
72423;BME280;71399;54.146;38.734;2024-03-17T06:50:04;99396.81;;;0.47;100.00
72423;BME280;71399;54.146;38.734;2024-03-17T06:52:31;99401.22;;;0.46;100.00
72423;BME280;71399;54.146;38.734;2024-03-17T06:54:58;99395.38;;;0.44;100.00
72423;BME280;71399;54.146;38.734;2024-03-17T06:57:25;99398.78;;;0.45;100.00
72423;BME280;71399;54.146;38.734;2024-03-17T06:59:51;99393.13;;;0.33;100.00
72423;BME280;71399;54.146;38.734;2024-03-17T07:02:18;99391.03;;;0.28;100.00
72423;BME280;71399;54.146;38.734;2024-03-17T07:04:46;99382.13;;;0.31;100.00
72423;BME280;71399;54.146;38.734;2024-03-17T07:07:14;99391.47;;;0.57;100.00
72423;BME280;71399;54.146;38.734;2024-03-17T07:09:40;99399.34;;;0.80;100.00
72423;BME280;71399;54.146;38.734;2024-03-17T07:12:10;99387.50;;;0.85;100.00
72423;BME280;71399;54.146;38.734;2024-03-17T07:14:39;99405.28;;;0.97;100.00
72423;BME280;71399;54.146;38.734;2024-03-17T07:17:05;99394.06;;;1.04;100.00
72423;BME280;71399;54.146;38.734;2024-03-17T07:19:33;99394.44;;;1.24;100.00
72423;BME280;71399;54.146;38.734;2024-03-17T07:22:00;99384.47;;;1.36;100.00
72423;BME280;71399;54.146;38.734;2024-03-17T07:24:26;99395.50;;;1.61;100.00
72423;BME280;71399;54.146;38.734;2024-03-17T07:26:53;99396.91;;;1.72;100.00
72423;BME280;71399;54.146;38.734;2024-03-17T07:29:19;99403.25;;;1.70;100.00
72423;BME280;71399;54.146;38.734;2024-03-17T07:31:45;99401.63;;;1.69;100.00
72423;BME280;71399;54.146;38.734;2024-03-17T07:34:12;99406.47;;;1.72;100.00
72423;BME280;71399;54.146;38.734;2024-03-17T07:36:38;99387.66;;;1.70;100.00
72423;BME280;71399;54.146;38.734;2024-03-17T07:39:05;99395.56;;;1.76;100.00
72423;BME280;71399;54.146;38.734;2024-03-17T07:41:33;99398.25;;;2.06;100.00
72423;BME280;71399;54.146;38.734;2024-03-17T07:43:59;99389.56;;;2.14;100.00
72423;BME280;71399;54.146;38.734;2024-03-17T07:46:26;99401.78;;;2.28;100.00
72423;BME280;71399;54.146;38.734;2024-03-17T07:48:52;99394.63;;;2.45;100.00
72423;BME280;71399;54.146;38.734;2024-03-17T07:51:18;99390.16;;;2.54;100.00
72423;BME280;71399;54.146;38.734;2024-03-17T07:53:46;99411.53;;;2.79;100.00
72423;BME280;71399;54.146;38.734;2024-03-17T07:56:15;99398.41;;;2.87;100.00
72423;BME280;71399;54.146;38.734;2024-03-17T07:58:43;99396.25;;;2.91;100.00
72423;BME280;71399;54.146;38.734;2024-03-17T08:01:14;99405.72;;;3.13;100.00
72423;BME280;71399;54.146;38.734;2024-03-17T08:03:44;99402.22;;;3.21;100.00
72423;BME280;71399;54.146;38.734;2024-03-17T08:06:11;99400.13;;;3.31;100.00
72423;BME280;71399;54.146;38.734;2024-03-17T08:08:37;99404.66;;;3.23;100.00
72423;BME280;71399;54.146;38.734;2024-03-17T08:11:04;99399.28;;;3.09;100.00
72423;BME280;71399;54.146;38.734;2024-03-17T08:13:31;99402.16;;;3.14;100.00
72423;BME280;71399;54.146;38.734;2024-03-17T08:16:03;99388.22;;;3.07;100.00
72423;BME280;71399;54.146;38.734;2024-03-17T08:18:32;99385.06;;;3.12;100.00
72423;BME280;71399;54.146;38.734;2024-03-17T08:21:02;99391.84;;;2.91;100.00
72423;BME280;71399;54.146;38.734;2024-03-17T08:23:30;99385.59;;;2.86;100.00
72423;BME280;71399;54.146;38.734;2024-03-17T08:25:58;99378.13;;;2.83;100.00
72423;BME280;71399;54.146;38.734;2024-03-17T08:28:25;99382.97;;;2.86;100.00
72423;BME280;71399;54.146;38.734;2024-03-17T08:30:57;99371.91;;;2.84;100.00
72423;BME280;71399;54.146;38.734;2024-03-17T08:33:24;99378.72;;;3.14;100.00
72423;BME280;71399;54.146;38.734;2024-03-17T08:35:59;99371.41;;;3.25;100.00
72423;BME280;71399;54.146;38.734;2024-03-17T08:38:26;99371.41;;;3.25;100.00
72423;BME280;71399;54.146;38.734;2024-03-17T08:40:57;99377.97;;;3.21;100.00
72423;BME280;71399;54.146;38.734;2024-03-17T08:43:24;99377.16;;;3.20;100.00
72423;BME280;71399;54.146;38.734;2024-03-17T08:46:01;99350.69;;;3.38;100.00
72423;BME280;71399;54.146;38.734;2024-03-17T08:48:30;99358.47;;;3.53;100.00
72423;BME280;71399;54.146;38.734;2024-03-17T08:50:58;99363.19;;;3.64;100.00
72423;BME280;71399;54.146;38.734;2024-03-17T08:53:25;99356.47;;;3.77;100.00
72423;BME280;71399;54.146;38.734;2024-03-17T08:55:55;99360.81;;;3.69;100.00
72423;BME280;71399;54.146;38.734;2024-03-17T08:58:22;99353.66;;;3.78;100.00
72423;BME280;71399;54.146;38.734;2024-03-17T09:00:48;99357.56;;;3.89;100.00
72423;BME280;71399;54.146;38.734;2024-03-17T09:03:15;99361.91;;;3.82;100.00
72423;BME280;71399;54.146;38.734;2024-03-17T09:05:44;99342.09;;;3.87;100.00
72423;BME280;71399;54.146;38.734;2024-03-17T09:08:22;99361.94;;;4.10;100.00
72423;BME280;71399;54.146;38.734;2024-03-17T09:10:52;99352.94;;;4.13;100.00
72423;BME280;71399;54.146;38.734;2024-03-17T09:13:20;99357.28;;;4.05;100.00
72423;BME280;71399;54.146;38.734;2024-03-17T09:15:57;99366.44;;;3.95;100.00
72423;BME280;71399;54.146;38.734;2024-03-17T09:18:27;99347.53;;;3.86;100.00
72423;BME280;71399;54.146;38.734;2024-03-17T09:21:05;99339.44;;;3.81;100.00
72423;BME280;71399;54.146;38.734;2024-03-17T09:23:32;99334.91;;;3.89;100.00
72423;BME280;71399;54.146;38.734;2024-03-17T09:26:05;99340.84;;;4.05;100.00
72423;BME280;71399;54.146;38.734;2024-03-17T09:28:35;99348.94;;;4.17;100.00
72423;BME280;71399;54.146;38.734;2024-03-17T09:31:02;99348.16;;;4.16;100.00
72423;BME280;71399;54.146;38.734;2024-03-17T09:33:31;99348.97;;;4.23;100.00
72423;BME280;71399;54.146;38.734;2024-03-17T09:36:05;99355.03;;;4.31;100.00
72423;BME280;71399;54.146;38.734;2024-03-17T09:38:36;99338.78;;;4.29;100.00
72423;BME280;71399;54.146;38.734;2024-03-17T09:41:03;99352.31;;;4.11;100.00
72423;BME280;71399;54.146;38.734;2024-03-17T09:43:33;99345.69;;;4.08;100.00
72423;BME280;71399;54.146;38.734;2024-03-17T09:46:03;99344.81;;;4.01;100.00
72423;BME280;71399;54.146;38.734;2024-03-17T09:48:29;99337.25;;;4.06;100.00
72423;BME280;71399;54.146;38.734;2024-03-17T09:50:57;99340.78;;;4.26;100.00
72423;BME280;71399;54.146;38.734;2024-03-17T09:53:29;99335.00;;;4.31;100.00
72423;BME280;71399;54.146;38.734;2024-03-17T09:56:13;99345.50;;;4.44;100.00
72423;BME280;71399;54.146;38.734;2024-03-17T09:58:42;99341.28;;;4.43;100.00
72423;BME280;71399;54.146;38.734;2024-03-17T10:01:08;99337.03;;;4.42;100.00
72423;BME280;71399;54.146;38.734;2024-03-17T10:03:44;99337.63;;;4.38;100.00
72423;BME280;71399;54.146;38.734;2024-03-17T10:06:13;99327.00;;;4.39;100.00
72423;BME280;71399;54.146;38.734;2024-03-17T10:11:17;99331.28;;;4.54;100.00
72423;BME280;71399;54.146;38.734;2024-03-17T10:13:46;99329.31;;;4.62;100.00
72423;BME280;71399;54.146;38.734;2024-03-17T10:16:24;99327.34;;;4.64;100.00
72423;BME280;71399;54.146;38.734;2024-03-17T10:19:15;99324.94;;;4.70;100.00
72423;BME280;71399;54.146;38.734;2024-03-17T10:21:44;99319.50;;;4.64;100.00
72423;BME280;71399;54.146;38.734;2024-03-17T10:24:14;99320.50;;;4.63;100.00
72423;BME280;71399;54.146;38.734;2024-03-17T10:26:49;99318.69;;;4.64;100.00
72423;BME280;71399;54.146;38.734;2024-03-17T10:29:31;99318.50;;;4.72;100.00
72423;BME280;71399;54.146;38.734;2024-03-17T10:32:01;99295.22;;;4.71;100.00
72423;BME280;71399;54.146;38.734;2024-03-17T10:34:30;99291.38;;;4.67;100.00
72423;BME280;71399;54.146;38.734;2024-03-17T10:37:07;99296.47;;;4.81;100.00
72423;BME280;71399;54.146;38.734;2024-03-17T10:39:38;99300.47;;;4.84;100.00
72423;BME280;71399;54.146;38.734;2024-03-17T10:42:06;99304.50;;;4.80;100.00
72423;BME280;71399;54.146;38.734;2024-03-17T10:44:37;99298.88;;;4.76;100.00
72423;BME280;71399;54.146;38.734;2024-03-17T10:47:06;99296.03;;;4.71;100.00
72423;BME280;71399;54.146;38.734;2024-03-17T10:49:38;99303.47;;;4.81;100.00
72423;BME280;71399;54.146;38.734;2024-03-17T10:52:07;99296.91;;;4.92;100.00
72423;BME280;71399;54.146;38.734;2024-03-17T10:54:34;99296.13;;;4.98;100.00
72423;BME280;71399;54.146;38.734;2024-03-17T10:57:32;99292.25;;;4.87;100.00
72423;BME280;71399;54.146;38.734;2024-03-17T11:00:04;99282.16;;;4.71;100.00
72423;BME280;71399;54.146;38.734;2024-03-17T11:02:32;99277.31;;;4.68;100.00
72423;BME280;71399;54.146;38.734;2024-03-17T11:05:11;99291.78;;;4.63;100.00
72423;BME280;71399;54.146;38.734;2024-03-17T11:07:41;99285.59;;;4.71;100.00
72423;BME280;71399;54.146;38.734;2024-03-17T11:10:20;99291.66;;;4.85;100.00
72423;BME280;71399;54.146;38.734;2024-03-17T11:12:50;99294.69;;;4.95;100.00
72423;BME280;71399;54.146;38.734;2024-03-17T11:17:54;99299.56;;;5.12;100.00
72423;BME280;71399;54.146;38.734;2024-03-17T11:20:25;99296.94;;;5.05;100.00
72423;BME280;71399;54.146;38.734;2024-03-17T11:22:55;99293.06;;;4.94;100.00
72423;BME280;71399;54.146;38.734;2024-03-17T11:27:57;99282.84;;;4.93;100.00
72423;BME280;71399;54.146;38.734;2024-03-17T11:30:48;99291.69;;;4.98;100.00
72423;BME280;71399;54.146;38.734;2024-03-17T11:38:53;99275.25;;;5.05;100.00
72423;BME280;71399;54.146;38.734;2024-03-17T11:41:38;99286.31;;;5.20;100.00
72423;BME280;71399;54.146;38.734;2024-03-17T11:51:54;99271.44;;;5.67;100.00
72423;BME280;71399;54.146;38.734;2024-03-17T11:54:29;99275.69;;;5.75;100.00
72423;BME280;71399;54.146;38.734;2024-03-17T11:57:03;99279.06;;;5.82;100.00
72423;BME280;71399;54.146;38.734;2024-03-17T11:59:32;99265.81;;;5.77;100.00
72423;BME280;71399;54.146;38.734;2024-03-17T12:01:59;99282.91;;;5.80;100.00
72423;BME280;71399;54.146;38.734;2024-03-17T12:04:25;99270.25;;;5.77;100.00
72423;BME280;71399;54.146;38.734;2024-03-17T12:06:56;99264.59;;;5.80;100.00
72423;BME280;71399;54.146;38.734;2024-03-17T12:09:30;99272.44;;;5.80;100.00
72423;BME280;71399;54.146;38.734;2024-03-17T12:12:02;99275.88;;;5.60;100.00
72423;BME280;71399;54.146;38.734;2024-03-17T12:14:33;99268.03;;;5.40;100.00
72423;BME280;71399;54.146;38.734;2024-03-17T12:17:01;99268.63;;;5.35;100.00
72423;BME280;71399;54.146;38.734;2024-03-17T12:19:28;99251.56;;;5.26;100.00
72423;BME280;71399;54.146;38.734;2024-03-17T12:21:56;99260.59;;;5.30;100.00
72423;BME280;71399;54.146;38.734;2024-03-17T12:24:24;99268.22;;;5.18;100.00
72423;BME280;71399;54.146;38.734;2024-03-17T12:26:51;99267.81;;;5.08;100.00
72423;BME280;71399;54.146;38.734;2024-03-17T12:29:23;99264.78;;;5.05;100.00
72423;BME280;71399;54.146;38.734;2024-03-17T12:31:51;99252.69;;;4.90;100.00
72423;BME280;71399;54.146;38.734;2024-03-17T12:34:22;99254.28;;;4.85;100.00
72423;BME280;71399;54.146;38.734;2024-03-17T12:36:49;99257.50;;;4.87;100.00
72423;BME280;71399;54.146;38.734;2024-03-17T12:39:27;99255.25;;;4.70;100.00
72423;BME280;71399;54.146;38.734;2024-03-17T12:42:07;99254.00;;;4.53;100.00
72423;BME280;71399;54.146;38.734;2024-03-17T12:44:46;99245.50;;;4.44;100.00
72423;BME280;71399;54.146;38.734;2024-03-17T12:47:20;99238.69;;;4.36;100.00
72423;BME280;71399;54.146;38.734;2024-03-17T12:49:59;99238.25;;;4.33;100.00
72423;BME280;71399;54.146;38.734;2024-03-17T12:52:30;99234.00;;;4.25;100.00
72423;BME280;71399;54.146;38.734;2024-03-17T12:55:05;99243.88;;;4.30;100.00
72423;BME280;71399;54.146;38.734;2024-03-17T12:58:12;99228.19;;;4.23;100.00
72423;BME280;71399;54.146;38.734;2024-03-17T13:01:04;99232.41;;;4.31;100.00
72423;BME280;71399;54.146;38.734;2024-03-17T13:03:31;99233.78;;;4.20;100.00
72423;BME280;71399;54.146;38.734;2024-03-17T13:06:05;99231.91;;;4.07;100.00
72423;BME280;71399;54.146;38.734;2024-03-17T13:08:33;99231.91;;;4.07;100.00
72423;BME280;71399;54.146;38.734;2024-03-17T13:11:00;99216.22;;;4.00;100.00
72423;BME280;71399;54.146;38.734;2024-03-17T13:13:26;99227.25;;;4.02;100.00
72423;BME280;71399;54.146;38.734;2024-03-17T13:15:53;99222.50;;;4.06;100.00